Time,TemperatureF,DewpointF,PressureIn,WindDirection,WindDirectionDegrees,WindSpeedMPH,WindSpeedGustMPH,Humidity,HourlyPrecipIn,Conditions,Clouds,dailyrainin,SoftwareType,DateUTC
2013-02-20 00:00:00,59.7,26.3,29.42,ENE,68,3.3,3.5,28,0.00,,,0.00,WUHU216HW,2013-02-20 06:00:00,
2013-02-20 00:05:00,59.7,26.3,29.42,East,90,0.0,3.3,28,0.00,,,0.00,WUHU216HW,2013-02-20 06:05:00,
2013-02-20 00:10:00,59.5,26.1,29.41,East,90,5.1,5.1,28,0.00,,,0.00,WUHU216HW,2013-02-20 06:10:00,
2013-02-20 00:15:00,59.5,26.1,29.41,ENE,68,5.5,5.5,28,0.00,,,0.00,WUHU216HW,2013-02-20 06:15:00,
2013-02-20 00:20:00,59.5,27.1,29.41,ESE,113,1.1,5.5,29,0.00,,,0.00,WUHU216HW,2013-02-20 06:20:00,
2013-02-20 00:25:00,59.5,26.0,29.40,East,90,2.6,5.5,28,0.00,,,0.00,WUHU216HW,2013-02-20 06:25:00,
2013-02-20 00:30:00,59.3,26.9,29.39,East,90,6.2,6.7,29,0.00,,,0.00,WUHU216HW,2013-02-20 06:30:00,
2013-02-20 00:35:00,59.1,26.8,29.38,East,90,8.7,8.7,29,0.00,,,0.00,WUHU216HW,2013-02-20 06:35:00,
2013-02-20 00:40:00,59.1,26.8,29.37,East,90,9.1,9.6,29,0.00,,,0.00,WUHU216HW,2013-02-20 06:40:00,
2013-02-20 00:45:00,59.1,27.8,29.37,East,90,6.2,9.6,30,0.00,,,0.00,WUHU216HW,2013-02-20 06:45:00,
2013-02-20 00:50:00,59.1,26.8,29.36,East,90,5.1,9.1,29,0.00,,,0.00,WUHU216HW,2013-02-20 06:50:00,
2013-02-20 00:55:00,59.0,27.6,29.37,East,90,3.8,7.8,30,0.00,,,0.00,WUHU216HW,2013-02-20 06:55:00,
2013-02-20 01:00:00,59.1,27.8,29.37,ESE,113,3.5,3.8,30,0.00,,,0.00,WUHU216HW,2013-02-20 07:00:00,
2013-02-20 01:05:00,58.8,27.5,29.37,ENE,68,2.0,3.8,30,0.00,,,0.00,WUHU216HW,2013-02-20 07:05:00,
2013-02-20 01:10:00,58.8,28.2,29.37,ESE,113,6.7,6.7,31,0.00,,,0.00,WUHU216HW,2013-02-20 07:10:00,
2013-02-20 01:15:00,59.0,28.3,29.37,East,90,5.1,6.7,31,0.00,,,0.00,WUHU216HW,2013-02-20 07:15:00,
2013-02-20 01:20:00,58.8,27.5,29.38,East,90,6.2,6.7,30,0.00,,,0.00,WUHU216HW,2013-02-20 07:20:00,
2013-02-20 01:25:00,58.8,27.5,29.39,ESE,113,3.5,7.1,30,0.00,,,0.00,WUHU216HW,2013-02-20 07:25:00,
2013-02-20 01:30:00,59.0,28.3,29.39,ENE,68,8.2,8.5,31,0.00,,,0.00,WUHU216HW,2013-02-20 07:30:00,
2013-02-20 01:35:00,58.8,28.2,29.39,SE,135,2.0,8.5,31,0.00,,,0.00,WUHU216HW,2013-02-20 07:35:00,
2013-02-20 01:40:00,58.8,28.2,29.38,East,90,0.8,8.2,31,0.00,,,0.00,WUHU216HW,2013-02-20 07:40:00,
2013-02-20 01:45:00,58.8,28.2,29.37,ESE,113,4.6,7.3,31,0.00,,,0.00,WUHU216HW,2013-02-20 07:45:00,
2013-02-20 01:50:00,58.8,28.2,29.37,East,90,6.4,7.3,31,0.00,,,0.00,WUHU216HW,2013-02-20 07:50:00,
2013-02-20 01:55:00,58.6,28.0,29.37,ENE,68,5.8,6.4,31,0.00,,,0.00,WUHU216HW,2013-02-20 07:55:00,
2013-02-20 02:00:00,58.8,28.2,29.37,South,180,3.3,5.8,31,0.00,,,0.00,WUHU216HW,2013-02-20 08:00:00,
2013-02-20 02:05:00,58.6,28.7,29.37,East,90,2.0,5.8,32,0.00,,,0.00,WUHU216HW,2013-02-20 08:05:00,
2013-02-20 02:10:00,58.6,28.7,29.37,East,90,6.4,6.4,32,0.00,,,0.00,WUHU216HW,2013-02-20 08:10:00,
2013-02-20 02:15:00,58.4,28.5,29.36,East,90,3.1,6.4,32,0.00,,,0.00,WUHU216HW,2013-02-20 08:15:00,
2013-02-20 02:20:00,58.4,28.5,29.37,East,90,6.4,6.9,32,0.00,,,0.00,WUHU216HW,2013-02-20 08:20:00,
2013-02-20 02:25:00,58.2,28.4,29.37,ENE,68,6.4,6.9,32,0.00,,,0.00,WUHU216HW,2013-02-20 08:25:00,
2013-02-20 02:30:00,58.4,27.8,29.37,East,90,2.4,6.9,31,0.00,,,0.00,WUHU216HW,2013-02-20 08:30:00,
2013-02-20 02:35:00,58.4,27.8,29.37,ESE,113,2.4,7.1,31,0.00,,,0.00,WUHU216HW,2013-02-20 08:35:00,
2013-02-20 02:40:00,58.2,27.7,29.38,SE,135,3.8,7.1,31,0.00,,,0.00,WUHU216HW,2013-02-20 08:40:00,
2013-02-20 02:45:00,58.1,26.8,29.37,East,90,5.5,7.8,30,0.00,,,0.00,WUHU216HW,2013-02-20 08:45:00,
2013-02-20 02:51:00,57.9,27.4,29.37,East,90,7.6,17.0,31,0.00,,,0.00,WUHU216HW,2013-02-20 08:51:00,
2013-02-20 02:56:00,57.9,27.4,29.37,East,90,2.2,17.0,31,0.00,,,0.00,WUHU216HW,2013-02-20 08:56:00,
2013-02-20 03:01:00,58.1,27.5,29.37,East,90,5.8,10.5,31,0.00,,,0.00,WUHU216HW,2013-02-20 09:01:00,
2013-02-20 03:06:00,57.7,27.2,29.35,ENE,68,8.0,8.0,31,0.00,,,0.00,WUHU216HW,2013-02-20 09:06:00,
2013-02-20 03:11:00,57.7,29.3,29.36,ESE,113,7.3,11.4,34,0.00,,,0.00,WUHU216HW,2013-02-20 09:11:00,
2013-02-20 03:16:00,57.9,27.4,29.36,ESE,113,5.1,11.4,31,0.00,,,0.00,WUHU216HW,2013-02-20 09:16:00,
2013-02-20 03:21:00,57.7,26.5,29.35,East,90,11.6,11.6,30,0.00,,,0.00,WUHU216HW,2013-02-20 09:21:00,
2013-02-20 03:26:00,57.7,26.5,29.36,ESE,113,3.5,11.6,30,0.00,,,0.00,WUHU216HW,2013-02-20 09:26:00,
2013-02-20 03:31:00,57.7,26.5,29.35,East,90,8.5,11.6,30,0.00,,,0.00,WUHU216HW,2013-02-20 09:31:00,
2013-02-20 03:36:00,57.7,24.6,29.34,South,180,6.7,13.4,28,0.00,,,0.00,WUHU216HW,2013-02-20 09:36:00,
2013-02-20 03:41:00,57.7,24.6,29.34,ENE,68,8.0,13.4,28,0.00,,,0.00,WUHU216HW,2013-02-20 09:41:00,
2013-02-20 03:46:00,57.7,23.6,29.34,ESE,113,2.9,8.0,27,0.00,,,0.00,WUHU216HW,2013-02-20 09:46:00,
2013-02-20 03:51:00,57.9,23.8,29.33,ESE,113,4.6,11.8,27,0.00,,,0.00,WUHU216HW,2013-02-20 09:51:00,
2013-02-20 03:56:00,57.7,22.6,29.34,East,90,3.8,11.8,26,0.00,,,0.00,WUHU216HW,2013-02-20 09:56:00,
2013-02-20 04:01:00,57.7,22.6,29.35,East,90,3.5,6.0,26,0.00,,,0.00,WUHU216HW,2013-02-20 10:01:00,
2013-02-20 04:06:00,57.7,22.6,29.35,East,90,2.4,4.4,26,0.00,,,0.00,WUHU216HW,2013-02-20 10:06:00,
2013-02-20 04:11:00,57.7,23.6,29.34,SE,135,2.6,4.9,27,0.00,,,0.00,WUHU216HW,2013-02-20 10:11:00,
2013-02-20 04:16:00,57.9,24.7,29.34,ESE,113,1.1,7.8,28,0.00,,,0.00,WUHU216HW,2013-02-20 10:16:00,
2013-02-20 04:21:00,57.7,23.6,29.33,ENE,68,4.9,7.8,27,0.00,,,0.00,WUHU216HW,2013-02-20 10:21:00,
2013-02-20 04:26:00,57.5,22.5,29.34,NNE,23,0.0,15.8,26,0.00,,,0.00,WUHU216HW,2013-02-20 10:26:00,
2013-02-20 04:31:00,57.7,22.6,29.33,ESE,113,6.7,15.8,26,0.00,,,0.00,WUHU216HW,2013-02-20 10:31:00,
2013-02-20 04:36:00,57.9,23.8,29.33,ESE,113,7.3,12.9,27,0.00,,,0.00,WUHU216HW,2013-02-20 10:36:00,
2013-02-20 04:41:00,57.5,22.5,29.32,ESE,113,12.5,12.9,26,0.00,,,0.00,WUHU216HW,2013-02-20 10:41:00,
2013-02-20 04:46:00,57.7,23.6,29.33,SE,135,5.5,12.5,27,0.00,,,0.00,WUHU216HW,2013-02-20 10:46:00,
2013-02-20 04:51:00,57.7,23.6,29.33,East,90,5.1,12.0,27,0.00,,,0.00,WUHU216HW,2013-02-20 10:51:00,
2013-02-20 04:56:00,57.7,23.6,29.34,ENE,68,5.1,12.0,27,0.00,,,0.00,WUHU216HW,2013-02-20 10:56:00,
2013-02-20 05:01:00,57.3,23.3,29.35,ESE,113,4.0,8.0,27,0.00,,,0.00,WUHU216HW,2013-02-20 11:01:00,
2013-02-20 05:06:00,57.5,24.4,29.35,ENE,68,4.0,8.5,28,0.00,,,0.00,WUHU216HW,2013-02-20 11:06:00,
2013-02-20 05:11:00,57.7,26.5,29.34,ENE,68,8.5,15.8,30,0.00,,,0.00,WUHU216HW,2013-02-20 11:11:00,
2013-02-20 05:16:00,57.3,26.2,29.33,ESE,113,4.2,15.8,30,0.00,,,0.00,WUHU216HW,2013-02-20 11:16:00,
2013-02-20 05:21:00,57.3,26.2,29.32,SSW,203,8.7,8.7,30,0.00,,,0.00,WUHU216HW,2013-02-20 11:21:00,
2013-02-20 05:26:00,57.5,27.0,29.31,ENE,68,2.6,8.7,31,0.00,,,0.00,WUHU216HW,2013-02-20 11:26:00,
2013-02-20 05:31:00,57.3,29.0,29.30,East,90,16.3,16.3,34,0.00,,,0.00,WUHU216HW,2013-02-20 11:31:00,
2013-02-20 05:36:00,57.3,29.0,29.29,SE,135,8.9,16.3,34,0.00,,,0.00,WUHU216HW,2013-02-20 11:36:00,
2013-02-20 05:41:00,57.0,29.4,29.29,East,90,13.4,13.4,35,0.00,,,0.00,WUHU216HW,2013-02-20 11:41:00,
2013-02-20 05:46:00,56.8,29.9,29.28,East,90,13.6,13.6,36,0.00,,,0.00,WUHU216HW,2013-02-20 11:46:00,
2013-02-20 05:51:00,56.8,31.3,29.28,East,90,14.9,14.9,38,0.00,,,0.00,WUHU216HW,2013-02-20 11:51:00,
2013-02-20 05:56:00,56.8,31.3,29.29,ENE,68,15.2,15.2,38,0.00,,,0.00,WUHU216HW,2013-02-20 11:56:00,
2013-02-20 06:01:00,56.8,31.3,29.29,East,90,5.3,15.2,38,0.00,,,0.00,WUHU216HW,2013-02-20 12:01:00,
2013-02-20 06:06:00,56.6,31.8,29.30,ENE,68,16.3,16.3,39,0.00,,,0.00,WUHU216HW,2013-02-20 12:06:00,
2013-02-20 06:11:00,56.8,32.7,29.30,NE,45,8.5,16.3,40,0.00,,,0.00,WUHU216HW,2013-02-20 12:11:00,
2013-02-20 06:16:00,56.8,33.3,29.29,East,90,7.8,17.0,41,0.00,,,0.00,WUHU216HW,2013-02-20 12:16:00,
2013-02-20 06:21:00,56.4,32.9,29.29,ESE,113,3.8,17.0,41,0.00,,,0.00,WUHU216HW,2013-02-20 12:21:00,
2013-02-20 06:26:00,56.4,33.5,29.29,NNE,23,3.3,11.8,42,0.00,,,0.00,WUHU216HW,2013-02-20 12:26:00,
2013-02-20 06:31:00,56.4,34.1,29.29,ESE,113,6.9,8.9,43,0.00,,,0.00,WUHU216HW,2013-02-20 12:31:00,
2013-02-20 06:36:00,56.8,35.0,29.29,ENE,68,8.5,15.2,44,0.00,,,0.00,WUHU216HW,2013-02-20 12:36:00,
2013-02-20 06:41:00,56.8,35.6,29.29,East,90,3.5,15.2,45,0.00,,,0.00,WUHU216HW,2013-02-20 12:41:00,
2013-02-20 06:46:00,56.6,35.4,29.29,East,90,4.9,8.5,45,0.00,,,0.00,WUHU216HW,2013-02-20 12:46:00,
2013-02-20 06:51:00,56.4,36.4,29.29,ENE,68,4.2,12.0,47,0.00,,,0.00,WUHU216HW,2013-02-20 12:51:00,
2013-02-20 06:56:00,56.8,36.7,29.29,ENE,68,10.0,12.0,47,0.00,,,0.00,WUHU216HW,2013-02-20 12:56:00,
2013-02-20 07:01:00,56.8,37.3,29.30,North,0,0.0,10.0,48,0.00,,,0.00,WUHU216HW,2013-02-20 13:01:00,
2013-02-20 07:06:00,56.4,37.3,29.30,East,90,15.4,15.4,49,0.00,,,0.00,WUHU216HW,2013-02-20 13:06:00,
2013-02-20 07:11:00,56.8,37.9,29.31,ESE,113,2.6,15.4,49,0.00,,,0.00,WUHU216HW,2013-02-20 13:11:00,
2013-02-20 07:16:00,56.4,37.5,29.31,ENE,68,10.7,15.4,49,0.00,,,0.00,WUHU216HW,2013-02-20 13:16:00,
2013-02-20 07:21:00,56.1,37.7,29.30,East,90,3.8,10.7,51,0.00,,,0.00,WUHU216HW,2013-02-20 13:21:00,
2013-02-20 07:26:00,55.9,38.0,29.29,ENE,68,4.6,9.1,51,0.00,,,0.00,WUHU216HW,2013-02-20 13:26:00,
2013-02-20 07:31:00,55.9,38.5,29.28,East,90,10.7,10.7,52,0.00,,,0.00,WUHU216HW,2013-02-20 13:31:00,
2013-02-20 07:36:00,55.9,38.9,29.29,East,90,6.7,10.7,53,0.00,,,0.00,WUHU216HW,2013-02-20 13:36:00,
2013-02-20 07:41:00,55.9,39.4,29.29,ENE,68,4.6,6.7,54,0.00,,,0.00,WUHU216HW,2013-02-20 13:41:00,
2013-02-20 07:46:00,55.9,39.4,29.28,East,90,13.8,13.8,54,0.00,,,0.00,WUHU216HW,2013-02-20 13:46:00,
2013-02-20 07:51:00,55.9,38.9,29.29,ENE,68,5.1,13.8,53,0.00,,,0.00,WUHU216HW,2013-02-20 13:51:00,
2013-02-20 07:56:00,55.9,39.4,29.29,East,90,6.0,8.0,54,0.00,,,0.00,WUHU216HW,2013-02-20 13:56:00,
2013-02-20 08:01:00,55.9,39.4,29.29,ENE,68,8.7,8.7,54,0.00,,,0.00,WUHU216HW,2013-02-20 14:01:00,
2013-02-20 08:06:00,55.9,39.9,29.29,ENE,68,7.6,13.4,55,0.00,,,0.00,WUHU216HW,2013-02-20 14:06:00,
2013-02-20 08:11:00,55.7,39.7,29.31,ESE,113,6.0,13.4,55,0.00,,,0.00,WUHU216HW,2013-02-20 14:11:00,
2013-02-20 08:16:00,55.9,39.9,29.32,East,90,4.2,8.7,55,0.00,,,0.00,WUHU216HW,2013-02-20 14:16:00,
2013-02-20 08:21:00,55.7,40.2,29.33,ENE,68,3.5,8.7,56,0.00,,,0.00,WUHU216HW,2013-02-20 14:21:00,
2013-02-20 08:26:00,55.9,40.3,29.34,ESE,113,2.9,3.5,56,0.00,,,0.00,WUHU216HW,2013-02-20 14:26:00,
2013-02-20 08:31:00,55.7,40.2,29.34,East,90,5.8,6.2,56,0.00,,,0.00,WUHU216HW,2013-02-20 14:31:00,
2013-02-20 08:36:00,55.9,40.3,29.34,East,90,1.1,6.2,56,0.00,,,0.00,WUHU216HW,2013-02-20 14:36:00,
2013-02-20 08:41:00,55.9,40.8,29.34,East,90,6.7,6.7,57,0.00,,,0.00,WUHU216HW,2013-02-20 14:41:00,
2013-02-20 08:46:00,55.9,40.8,29.34,East,90,2.4,6.7,57,0.00,,,0.00,WUHU216HW,2013-02-20 14:46:00,
2013-02-20 08:51:00,55.9,40.8,29.34,ESE,113,2.4,6.7,57,0.00,,,0.00,WUHU216HW,2013-02-20 14:51:00,
2013-02-20 08:56:00,55.9,41.3,29.34,East,90,8.0,8.0,58,0.00,,,0.00,WUHU216HW,2013-02-20 14:56:00,
2013-02-20 09:01:00,55.9,41.7,29.33,ENE,68,7.1,8.0,59,0.00,,,0.00,WUHU216HW,2013-02-20 15:01:00,
2013-02-20 09:06:00,55.9,41.7,29.33,East,90,6.0,8.9,59,0.00,,,0.00,WUHU216HW,2013-02-20 15:06:00,
2013-02-20 09:11:00,55.7,42.0,29.33,ENE,68,4.4,9.1,60,0.00,,,0.00,WUHU216HW,2013-02-20 15:11:00,
2013-02-20 09:16:00,55.7,42.0,29.32,ENE,68,2.9,9.1,60,0.00,,,0.00,WUHU216HW,2013-02-20 15:16:00,
2013-02-20 09:21:00,55.4,42.5,29.32,ESE,113,2.6,8.5,62,0.00,,,0.00,WUHU216HW,2013-02-20 15:21:00,
2013-02-20 09:26:00,55.4,42.9,29.32,East,90,6.9,8.5,63,0.00,,,0.00,WUHU216HW,2013-02-20 15:26:00,
2013-02-20 09:31:00,55.2,42.7,29.32,ENE,68,2.4,6.9,63,0.00,,,0.00,WUHU216HW,2013-02-20 15:31:00,
2013-02-20 09:36:00,55.2,43.1,29.32,East,90,4.6,8.2,64,0.00,,,0.00,WUHU216HW,2013-02-20 15:36:00,
2013-02-20 09:41:00,55.2,43.1,29.32,East,90,6.7,8.2,64,0.00,,,0.00,WUHU216HW,2013-02-20 15:41:00,
2013-02-20 09:46:00,55.2,43.1,29.32,East,90,9.6,9.6,64,0.00,,,0.00,WUHU216HW,2013-02-20 15:46:00,
2013-02-20 09:51:00,55.2,43.1,29.32,SE,135,3.1,9.8,64,0.00,,,0.00,WUHU216HW,2013-02-20 15:51:00,
2013-02-20 09:56:00,55.4,43.3,29.32,East,90,8.7,9.8,64,0.00,,,0.00,WUHU216HW,2013-02-20 15:56:00,
2013-02-20 10:01:00,55.4,43.7,29.31,East,90,4.2,8.7,65,0.00,,,0.00,WUHU216HW,2013-02-20 16:01:00,
2013-02-20 10:06:00,55.2,44.0,29.30,East,90,9.3,9.3,66,0.00,,,0.00,WUHU216HW,2013-02-20 16:06:00,
2013-02-20 10:11:00,55.2,43.6,29.30,East,90,8.7,9.3,65,0.00,,,0.00,WUHU216HW,2013-02-20 16:11:00,
2013-02-20 10:16:00,55.2,43.6,29.29,East,90,7.6,9.3,65,0.00,,,0.00,WUHU216HW,2013-02-20 16:16:00,
2013-02-20 10:21:00,55.4,44.2,29.29,East,90,11.6,11.6,66,0.00,,,0.00,WUHU216HW,2013-02-20 16:21:00,
2013-02-20 10:26:00,55.4,44.2,29.29,ESE,113,5.3,11.6,66,0.00,,,0.00,WUHU216HW,2013-02-20 16:26:00,
2013-02-20 10:31:00,55.4,44.2,29.27,East,90,7.6,11.6,66,0.00,,,0.00,WUHU216HW,2013-02-20 16:31:00,
2013-02-20 10:36:00,55.5,44.3,29.28,ENE,68,11.8,17.4,66,0.00,,,0.00,WUHU216HW,2013-02-20 16:36:00,
2013-02-20 10:41:00,55.5,44.3,29.27,East,90,6.7,17.4,66,0.00,,,0.00,WUHU216HW,2013-02-20 16:41:00,
2013-02-20 10:46:00,55.5,44.3,29.28,ESE,113,9.1,11.8,66,0.00,,,0.00,WUHU216HW,2013-02-20 16:46:00,
2013-02-20 10:51:00,55.5,44.3,29.28,East,90,2.9,9.1,66,0.00,,,0.00,WUHU216HW,2013-02-20 16:51:00,
2013-02-20 10:56:00,55.7,44.5,29.28,ESE,113,8.0,8.0,66,0.00,,,0.00,WUHU216HW,2013-02-20 16:56:00,
2013-02-20 11:01:00,55.7,44.5,29.28,East,90,3.1,8.0,66,0.00,,,0.00,WUHU216HW,2013-02-20 17:01:00,
2013-02-20 11:06:00,55.9,44.5,29.28,ENE,68,14.0,14.0,66,0.00,,,0.00,WUHU216HW,2013-02-20 17:06:00,
2013-02-20 11:11:00,55.9,44.7,29.28,East,90,5.1,14.0,66,0.00,,,0.00,WUHU216HW,2013-02-20 17:11:00,
2013-02-20 11:16:00,55.9,45.1,29.28,ENE,68,3.8,14.0,67,0.00,,,0.00,WUHU216HW,2013-02-20 17:16:00,
2013-02-20 11:21:00,55.7,44.9,29.28,SE,135,2.2,12.0,67,0.00,,,0.00,WUHU216HW,2013-02-20 17:21:00,
2013-02-20 11:26:00,55.9,45.5,29.28,ENE,68,9.1,12.0,68,0.00,,,0.00,WUHU216HW,2013-02-20 17:26:00,
2013-02-20 11:31:00,55.9,45.5,29.28,ESE,113,4.2,10.2,68,0.00,,,0.00,WUHU216HW,2013-02-20 17:31:00,
2013-02-20 11:36:00,55.9,45.5,29.27,ENE,68,11.8,11.8,68,0.00,,,0.00,WUHU216HW,2013-02-20 17:36:00,
2013-02-20 11:41:00,55.9,45.5,29.27,ENE,68,9.6,11.8,68,0.00,,,0.00,WUHU216HW,2013-02-20 17:41:00,
2013-02-20 11:46:00,55.7,45.3,29.28,ENE,68,10.2,11.8,68,0.00,,,0.00,WUHU216HW,2013-02-20 17:46:00,
2013-02-20 11:51:00,55.9,45.5,29.27,East,90,13.4,13.4,68,0.00,,,0.00,WUHU216HW,2013-02-20 17:51:00,
2013-02-20 11:56:00,55.9,45.5,29.27,ESE,113,4.0,13.4,68,0.00,,,0.00,WUHU216HW,2013-02-20 17:56:00,
2013-02-20 12:01:00,55.7,45.7,29.27,ENE,68,12.0,13.4,69,0.00,,,0.00,WUHU216HW,2013-02-20 18:01:00,
2013-02-20 12:06:00,55.9,46.3,29.26,East,90,9.1,14.0,70,0.00,,,0.00,WUHU216HW,2013-02-20 18:06:00,
2013-02-20 12:11:00,55.7,46.5,29.26,ENE,68,8.0,14.0,71,0.00,,,0.00,WUHU216HW,2013-02-20 18:11:00,
2013-02-20 12:16:00,55.7,46.5,29.26,East,90,6.9,10.7,71,0.00,,,0.00,WUHU216HW,2013-02-20 18:16:00,
2013-02-20 12:21:00,55.9,47.0,29.25,East,90,6.2,16.5,72,0.00,,,0.00,WUHU216HW,2013-02-20 18:21:00,
2013-02-20 12:26:00,55.9,47.3,29.24,ENE,68,6.0,16.5,73,0.00,,,0.00,WUHU216HW,2013-02-20 18:26:00,
2013-02-20 12:31:00,56.1,47.5,29.24,ENE,68,15.8,16.7,73,0.00,,,0.00,WUHU216HW,2013-02-20 18:31:00,
2013-02-20 12:36:00,56.1,47.5,29.24,ENE,68,8.9,16.7,73,0.00,,,0.00,WUHU216HW,2013-02-20 18:36:00,
2013-02-20 12:41:00,56.1,47.5,29.23,East,90,7.3,11.4,73,0.00,,,0.00,WUHU216HW,2013-02-20 18:41:00,
2013-02-20 12:46:00,56.1,47.5,29.23,ENE,68,4.0,9.3,73,0.00,,,0.00,WUHU216HW,2013-02-20 18:46:00,
2013-02-20 12:51:00,56.3,47.7,29.22,East,90,6.9,7.3,73,0.00,,,0.00,WUHU216HW,2013-02-20 18:51:00,
2013-02-20 12:56:00,56.4,48.2,29.22,ENE,68,5.1,13.6,74,0.00,,,0.00,WUHU216HW,2013-02-20 18:56:00,
2013-02-20 13:01:00,56.4,48.5,29.22,East,90,5.8,13.6,75,0.00,,,0.00,WUHU216HW,2013-02-20 19:01:00,
2013-02-20 13:06:00,56.6,48.3,29.21,East,90,9.1,9.8,74,0.00,,,0.00,WUHU216HW,2013-02-20 19:06:00,
2013-02-20 13:11:00,56.8,48.9,29.21,ESE,113,6.0,9.1,75,0.00,,,0.00,WUHU216HW,2013-02-20 19:11:00,
2013-02-20 13:16:00,56.8,48.9,29.20,ENE,68,8.0,9.1,75,0.00,,,0.00,WUHU216HW,2013-02-20 19:16:00,
2013-02-20 13:21:00,56.8,49.2,29.20,ENE,68,8.7,10.7,76,0.00,,,0.00,WUHU216HW,2013-02-20 19:21:00,
2013-02-20 13:26:00,56.8,49.2,29.19,East,90,7.6,10.7,76,0.00,,,0.00,WUHU216HW,2013-02-20 19:26:00,
2013-02-20 13:31:00,56.8,49.2,29.19,ENE,68,8.2,10.2,76,0.00,,,0.00,WUHU216HW,2013-02-20 19:31:00,
2013-02-20 13:36:00,56.8,49.6,29.19,East,90,10.2,10.2,77,0.00,,,0.00,WUHU216HW,2013-02-20 19:36:00,
2013-02-20 13:41:00,56.8,49.2,29.19,ENE,68,5.3,10.2,76,0.00,,,0.00,WUHU216HW,2013-02-20 19:41:00,
2013-02-20 13:46:00,56.8,49.6,29.18,ENE,68,7.6,10.2,77,0.00,,,0.00,WUHU216HW,2013-02-20 19:46:00,
2013-02-20 13:51:00,56.8,50.0,29.18,ENE,68,7.6,17.4,78,0.00,,,0.00,WUHU216HW,2013-02-20 19:51:00,
2013-02-20 13:56:00,57.0,50.1,29.17,NE,45,9.1,17.4,78,0.00,,,0.00,WUHU216HW,2013-02-20 19:56:00,
2013-02-20 14:01:00,57.0,50.1,29.17,East,90,6.7,9.1,78,0.00,,,0.00,WUHU216HW,2013-02-20 20:01:00,
2013-02-20 14:06:00,57.0,50.1,29.17,East,90,7.3,11.4,78,0.00,,,0.00,WUHU216HW,2013-02-20 20:06:00,
2013-02-20 14:11:00,57.0,50.5,29.17,ENE,68,10.2,12.0,79,0.00,,,0.00,WUHU216HW,2013-02-20 20:11:00,
2013-02-20 14:16:00,57.0,50.5,29.17,ENE,68,7.6,14.5,79,0.00,,,0.00,WUHU216HW,2013-02-20 20:16:00,
2013-02-20 14:21:00,57.0,50.9,29.17,ENE,68,11.6,14.5,80,0.00,,,0.00,WUHU216HW,2013-02-20 20:21:00,
2013-02-20 14:26:00,56.8,50.7,29.16,ENE,68,8.5,11.6,80,0.00,,,0.00,WUHU216HW,2013-02-20 20:26:00,
2013-02-20 14:31:00,56.8,50.7,29.16,East,90,5.1,11.6,80,0.00,,,0.00,WUHU216HW,2013-02-20 20:31:00,
2013-02-20 14:36:00,56.8,51.0,29.16,East,90,12.9,12.9,81,0.00,,,0.00,WUHU216HW,2013-02-20 20:36:00,
2013-02-20 14:41:00,56.8,51.0,29.16,ENE,68,9.8,12.9,81,0.00,,,0.00,WUHU216HW,2013-02-20 20:41:00,
2013-02-20 14:46:00,56.8,51.3,29.15,ENE,68,11.4,15.2,82,0.00,,,0.00,WUHU216HW,2013-02-20 20:46:00,
2013-02-20 14:51:00,56.4,51.0,29.15,East,90,9.8,15.2,82,0.00,,,0.00,WUHU216HW,2013-02-20 20:51:00,
2013-02-20 14:56:00,56.4,51.3,29.15,ENE,68,14.9,14.9,83,0.00,,,0.00,WUHU216HW,2013-02-20 20:56:00,
2013-02-20 15:01:00,56.4,51.6,29.15,ENE,68,10.7,14.9,84,0.00,,,0.00,WUHU216HW,2013-02-20 21:01:00,
2013-02-20 15:06:00,56.4,51.6,29.14,ENE,68,8.5,12.3,84,0.00,,,0.00,WUHU216HW,2013-02-20 21:06:00,
2013-02-20 15:11:00,56.4,51.9,29.14,East,90,7.3,12.3,85,0.00,,,0.00,WUHU216HW,2013-02-20 21:11:00,
2013-02-20 15:16:00,56.4,51.9,29.13,ENE,68,18.3,18.3,85,0.00,,,0.00,WUHU216HW,2013-02-20 21:16:00,
2013-02-20 15:21:00,56.4,52.3,29.13,East,90,14.0,18.3,86,0.00,,,0.00,WUHU216HW,2013-02-20 21:21:00,
2013-02-20 15:26:00,56.4,52.3,29.13,East,90,16.7,21.0,86,0.00,,,0.00,WUHU216HW,2013-02-20 21:26:00,
2013-02-20 15:31:00,56.4,52.6,29.13,East,90,7.6,21.0,87,0.00,,,0.00,WUHU216HW,2013-02-20 21:31:00,
2013-02-20 15:36:00,56.4,52.6,29.13,ESE,113,7.3,16.7,87,0.00,,,0.00,WUHU216HW,2013-02-20 21:36:00,
2013-02-20 15:41:00,56.4,52.6,29.13,East,90,5.8,14.3,87,0.00,,,0.00,WUHU216HW,2013-02-20 21:41:00,
2013-02-20 15:46:00,56.4,52.6,29.12,East,90,18.7,18.7,87,0.00,,,0.00,WUHU216HW,2013-02-20 21:46:00,
2013-02-20 15:51:00,56.4,52.6,29.13,ENE,68,9.3,18.7,87,0.00,,,0.00,WUHU216HW,2013-02-20 21:51:00,
2013-02-20 15:56:00,56.4,52.9,29.12,East,90,8.9,15.4,88,0.00,,,0.00,WUHU216HW,2013-02-20 21:56:00,
2013-02-20 16:01:00,56.4,52.9,29.12,East,90,7.6,9.6,88,0.00,,,0.00,WUHU216HW,2013-02-20 22:01:00,
2013-02-20 16:06:00,56.3,52.7,29.13,ENE,68,4.9,15.6,88,0.00,,,0.00,WUHU216HW,2013-02-20 22:06:00,
2013-02-20 16:11:00,56.3,52.7,29.13,East,90,8.0,15.6,88,0.00,,,0.00,WUHU216HW,2013-02-20 22:11:00,
2013-02-20 16:16:00,55.9,52.4,29.12,East,90,4.6,8.0,88,0.00,,,0.00,WUHU216HW,2013-02-20 22:16:00,
2013-02-20 16:21:00,55.7,52.2,29.12,ENE,68,11.1,11.1,88,0.00,,,0.00,WUHU216HW,2013-02-20 22:21:00,
2013-02-20 16:26:00,55.5,52.3,29.12,NE,45,14.3,14.3,89,0.00,,,0.00,WUHU216HW,2013-02-20 22:26:00,
2013-02-20 16:31:00,55.4,52.1,29.12,NE,45,4.2,14.3,89,0.00,,,0.00,WUHU216HW,2013-02-20 22:31:00,
2013-02-20 16:37:00,55.2,52.3,29.12,East,90,7.3,7.3,90,0.00,,,0.00,WUHU216HW,2013-02-20 22:37:00,
2013-02-20 16:42:00,55.2,52.3,29.12,ENE,68,13.4,13.4,90,0.00,,,0.00,WUHU216HW,2013-02-20 22:42:00,
2013-02-20 16:47:00,55.2,52.6,29.11,East,90,7.3,13.4,91,0.00,,,0.00,WUHU216HW,2013-02-20 22:47:00,
2013-02-20 16:52:00,55.2,52.6,29.11,East,90,6.7,8.7,91,0.00,,,0.00,WUHU216HW,2013-02-20 22:52:00,
2013-02-20 16:57:00,55.0,52.7,29.11,East,90,9.8,9.8,92,0.00,,,0.00,WUHU216HW,2013-02-20 22:57:00,
2013-02-20 17:02:00,55.0,53.0,29.11,ENE,68,9.6,9.8,93,0.00,,,0.00,WUHU216HW,2013-02-20 23:02:00,
2013-02-20 17:07:00,55.0,53.0,29.11,East,90,8.2,9.8,93,0.00,,,0.00,WUHU216HW,2013-02-20 23:07:00,
2013-02-20 17:12:00,55.0,53.0,29.11,East,90,11.4,13.1,93,0.00,,,0.00,WUHU216HW,2013-02-20 23:12:00,
2013-02-20 17:17:00,55.0,53.3,29.10,East,90,8.2,13.1,94,0.00,,,0.00,WUHU216HW,2013-02-20 23:17:00,
2013-02-20 17:22:00,55.0,53.3,29.10,ENE,68,7.3,11.4,94,0.00,,,0.00,WUHU216HW,2013-02-20 23:22:00,
2013-02-20 17:27:00,55.0,53.6,29.10,East,90,8.2,11.1,95,0.00,,,0.00,WUHU216HW,2013-02-20 23:27:00,
2013-02-20 17:32:00,54.8,53.4,29.10,NE,45,8.2,11.8,95,0.00,,,0.00,WUHU216HW,2013-02-20 23:32:00,
2013-02-20 17:37:00,54.6,53.2,29.10,East,90,9.1,11.8,95,0.00,,,0.00,WUHU216HW,2013-02-20 23:37:00,
2013-02-20 17:42:00,54.8,53.7,29.10,East,90,6.7,9.1,96,0.00,,,0.00,WUHU216HW,2013-02-20 23:42:00,
2013-02-20 17:47:00,54.8,53.7,29.09,ENE,68,6.9,8.9,96,0.00,,,0.00,WUHU216HW,2013-02-20 23:47:00,
2013-02-20 17:52:00,55.0,53.8,29.08,East,90,6.7,7.6,96,0.00,,,0.00,WUHU216HW,2013-02-20 23:52:00,
2013-02-20 17:57:00,55.0,54.1,29.08,ENE,68,8.5,8.7,97,0.00,,,0.00,WUHU216HW,2013-02-20 23:57:00,
2013-02-20 18:02:00,55.0,54.1,29.08,ENE,68,5.1,8.9,97,0.00,,,0.00,WUHU216HW,2013-02-21 00:02:00,
2013-02-20 18:07:00,55.0,54.1,29.08,East,90,10.7,10.7,97,0.00,,,0.00,WUHU216HW,2013-02-21 00:07:00,
2013-02-20 18:12:00,55.0,54.1,29.07,East,90,5.5,10.7,97,0.00,,,0.00,WUHU216HW,2013-02-21 00:12:00,
2013-02-20 18:17:00,55.2,54.3,29.07,ENE,68,10.0,11.6,97,0.00,,,0.00,WUHU216HW,2013-02-21 00:17:00,
2013-02-20 18:22:00,55.2,54.3,29.07,ENE,68,5.5,11.6,97,0.00,,,0.00,WUHU216HW,2013-02-21 00:22:00,
2013-02-20 18:27:00,55.2,54.6,29.06,NE,45,8.5,10.0,98,0.00,,,0.00,WUHU216HW,2013-02-21 00:27:00,
2013-02-20 18:32:00,55.2,54.6,29.06,ENE,68,9.1,11.8,98,0.00,,,0.00,WUHU216HW,2013-02-21 00:32:00,
2013-02-20 18:37:00,55.2,54.6,29.06,ENE,68,6.9,11.8,98,0.00,,,0.00,WUHU216HW,2013-02-21 00:37:00,
2013-02-20 18:42:00,55.2,54.6,29.06,ENE,68,8.0,14.0,98,0.00,,,0.00,WUHU216HW,2013-02-21 00:42:00,
2013-02-20 18:47:00,55.2,54.6,29.06,ENE,68,4.6,14.0,98,0.00,,,0.00,WUHU216HW,2013-02-21 00:47:00,
2013-02-20 18:52:00,55.2,54.6,29.06,ENE,68,5.3,8.0,98,0.00,,,0.00,WUHU216HW,2013-02-21 00:52:00,
2013-02-20 18:57:00,55.2,54.6,29.06,ENE,68,6.4,9.6,98,0.00,,,0.00,WUHU216HW,2013-02-21 00:57:00,
2013-02-20 19:02:00,55.2,54.6,29.06,ENE,68,4.2,9.6,98,0.00,,,0.00,WUHU216HW,2013-02-21 01:02:00,
2013-02-20 19:07:00,55.4,54.8,29.06,East,90,5.3,6.4,98,0.00,,,0.00,WUHU216HW,2013-02-21 01:07:00,
2013-02-20 19:12:00,55.5,55.0,29.06,ESE,113,5.3,8.2,99,0.00,,,0.00,WUHU216HW,2013-02-21 01:12:00,
2013-02-20 19:17:00,55.5,55.0,29.06,East,90,7.1,8.2,98,0.00,,,0.00,WUHU216HW,2013-02-21 01:17:00,
2013-02-20 19:22:00,55.5,55.0,29.06,ENE,68,8.0,8.0,98,0.00,,,0.00,WUHU216HW,2013-02-21 01:22:00,
2013-02-20 19:27:00,55.7,55.1,29.06,East,90,5.3,10.5,98,0.00,,,0.00,WUHU216HW,2013-02-21 01:27:00,
2013-02-20 19:32:00,55.9,55.6,29.05,East,90,5.8,10.5,99,0.00,,,0.00,WUHU216HW,2013-02-21 01:32:00,
2013-02-20 19:37:00,55.9,55.6,29.04,ENE,68,8.2,8.9,99,0.00,,,0.00,WUHU216HW,2013-02-21 01:37:00,
2013-02-20 19:42:00,55.9,55.6,29.05,ENE,68,8.2,10.2,99,0.00,,,0.00,WUHU216HW,2013-02-21 01:42:00,
2013-02-20 19:47:00,56.1,55.8,29.05,ESE,113,6.9,10.2,99,0.00,,,0.00,WUHU216HW,2013-02-21 01:47:00,
2013-02-20 19:52:00,56.1,55.8,29.05,ENE,68,7.3,8.2,99,0.00,,,0.00,WUHU216HW,2013-02-21 01:52:00,
2013-02-20 19:57:00,56.3,55.7,29.05,East,90,9.8,9.8,98,0.00,,,0.00,WUHU216HW,2013-02-21 01:57:00,
2013-02-20 20:02:00,56.4,56.1,29.04,ENE,68,6.7,9.8,99,0.00,,,0.00,WUHU216HW,2013-02-21 02:02:00,
2013-02-20 20:07:00,56.6,56.0,29.04,ENE,68,7.8,9.8,98,0.00,,,0.00,WUHU216HW,2013-02-21 02:07:00,
2013-02-20 20:12:00,56.8,56.2,29.04,East,90,10.5,14.0,98,0.00,,,0.00,WUHU216HW,2013-02-21 02:12:00,
2013-02-20 20:17:00,57.0,56.7,29.04,ENE,68,6.2,14.0,99,0.00,,,0.00,WUHU216HW,2013-02-21 02:17:00,
2013-02-20 20:22:00,57.0,56.4,29.03,East,90,6.2,13.6,98,0.00,,,0.00,WUHU216HW,2013-02-21 02:22:00,
2013-02-20 20:27:00,57.3,56.8,29.03,ENE,68,13.6,14.3,98,0.00,,,0.00,WUHU216HW,2013-02-21 02:27:00,
2013-02-20 20:32:00,57.3,56.8,29.03,East,90,8.0,14.3,98,0.00,,,0.00,WUHU216HW,2013-02-21 02:32:00,
2013-02-20 20:37:00,57.3,56.8,29.02,ENE,68,10.5,13.6,98,0.00,,,0.00,WUHU216HW,2013-02-21 02:37:00,
2013-02-20 20:42:00,57.5,56.9,29.02,East,90,16.1,16.1,98,0.00,,,0.00,WUHU216HW,2013-02-21 02:42:00,
2013-02-20 20:47:00,57.5,56.9,29.02,ENE,68,15.8,16.1,98,0.00,,,0.00,WUHU216HW,2013-02-21 02:47:00,
2013-02-20 20:52:00,57.7,57.1,29.01,East,90,7.1,18.7,98,0.00,,,0.00,WUHU216HW,2013-02-21 02:52:00,
2013-02-20 20:57:00,57.7,57.1,29.01,East,90,12.5,18.7,98,0.00,,,0.00,WUHU216HW,2013-02-21 02:57:00,
2013-02-20 21:02:00,57.7,57.1,29.00,East,90,15.6,17.2,98,0.00,,,0.00,WUHU216HW,2013-02-21 03:02:00,
2013-02-20 21:07:00,57.9,57.3,29.00,East,90,15.6,17.2,98,0.00,,,0.00,WUHU216HW,2013-02-21 03:07:00,
2013-02-20 21:12:00,57.9,57.3,28.99,East,90,8.5,15.6,98,0.00,,,0.00,WUHU216HW,2013-02-21 03:12:00,
2013-02-20 21:17:00,58.1,57.5,28.99,East,90,12.0,13.6,98,0.00,,,0.00,WUHU216HW,2013-02-21 03:17:00,
2013-02-20 21:22:00,58.2,57.7,28.99,ENE,68,6.2,13.6,98,0.00,,,0.00,WUHU216HW,2013-02-21 03:22:00,
2013-02-20 21:27:00,58.4,57.8,28.99,ENE,68,19.0,19.0,98,0.00,,,0.00,WUHU216HW,2013-02-21 03:27:00,
2013-02-20 21:32:00,58.6,58.0,28.98,ESE,113,11.6,19.0,98,0.00,,,0.00,WUHU216HW,2013-02-21 03:32:00,
2013-02-20 21:37:00,58.8,58.2,28.98,East,90,11.8,19.0,98,0.00,,,0.00,WUHU216HW,2013-02-21 03:37:00,
2013-02-20 21:42:00,59.1,58.6,28.98,East,90,9.8,15.4,98,0.00,,,0.00,WUHU216HW,2013-02-21 03:42:00,
2013-02-20 21:47:00,59.1,58.6,28.98,ESE,113,13.8,15.4,98,0.00,,,0.00,WUHU216HW,2013-02-21 03:47:00,
2013-02-20 21:52:00,59.5,58.9,28.98,East,90,9.6,18.1,98,0.00,,,0.00,WUHU216HW,2013-02-21 03:52:00,
2013-02-20 21:57:00,59.7,59.1,28.98,East,90,16.1,18.1,98,0.00,,,0.00,WUHU216HW,2013-02-21 03:57:00,
2013-02-20 22:02:00,59.7,58.8,28.98,ENE,68,6.9,16.1,97,0.00,,,0.00,WUHU216HW,2013-02-21 04:02:00,
2013-02-20 22:07:00,60.0,59.2,28.97,ENE,68,13.4,16.1,97,0.00,,,0.00,WUHU216HW,2013-02-21 04:07:00,
2013-02-20 22:12:00,60.2,59.3,28.98,East,90,16.1,16.1,97,0.00,,,0.00,WUHU216HW,2013-02-21 04:12:00,
2013-02-20 22:17:00,60.4,59.5,28.98,East,90,5.3,16.1,97,0.00,,,0.00,WUHU216HW,2013-02-21 04:17:00,
2013-02-20 22:22:00,60.6,59.7,28.98,ESE,113,14.3,16.1,97,0.00,,,0.00,WUHU216HW,2013-02-21 04:22:00,
2013-02-20 22:27:00,60.6,59.7,28.98,ESE,113,6.0,16.5,97,0.00,,,0.00,WUHU216HW,2013-02-21 04:27:00,
2013-02-20 22:32:00,60.8,59.9,28.97,East,90,6.9,16.5,97,0.00,,,0.00,WUHU216HW,2013-02-21 04:32:00,
2013-02-20 22:37:00,60.9,60.1,28.98,East,90,11.4,11.4,97,0.00,,,0.00,WUHU216HW,2013-02-21 04:37:00,
2013-02-20 22:42:00,61.1,60.2,28.97,ESE,113,6.0,11.4,97,0.00,,,0.00,WUHU216HW,2013-02-21 04:42:00,
2013-02-20 22:47:00,61.1,60.2,28.97,East,90,6.7,10.2,97,0.00,,,0.00,WUHU216HW,2013-02-21 04:47:00,
2013-02-20 22:52:00,61.1,60.2,28.97,ENE,68,9.8,9.8,97,0.00,,,0.00,WUHU216HW,2013-02-21 04:52:00,
2013-02-20 22:57:00,61.3,60.4,28.97,ENE,68,5.8,11.8,97,0.00,,,0.00,WUHU216HW,2013-02-21 04:57:00,
2013-02-20 23:02:00,61.3,60.4,28.97,ESE,113,7.3,11.8,97,0.00,,,0.00,WUHU216HW,2013-02-21 05:02:00,
2013-02-20 23:07:00,61.3,60.4,28.96,East,90,5.3,11.8,97,0.00,,,0.00,WUHU216HW,2013-02-21 05:07:00,
2013-02-20 23:12:00,61.5,60.6,28.96,ESE,113,7.1,8.2,97,0.00,,,0.00,WUHU216HW,2013-02-21 05:12:00,
2013-02-20 23:17:00,61.5,60.6,28.96,ESE,113,7.8,8.2,97,0.00,,,0.00,WUHU216HW,2013-02-21 05:17:00,
2013-02-20 23:22:00,61.8,61.0,28.96,East,90,5.8,7.8,97,0.00,,,0.00,WUHU216HW,2013-02-21 05:22:00,
2013-02-20 23:27:00,61.8,61.0,28.96,East,90,1.3,7.8,97,0.00,,,0.00,WUHU216HW,2013-02-21 05:27:00,
2013-02-20 23:32:00,62.0,60.9,28.96,East,90,12.3,12.3,96,0.00,,,0.00,WUHU216HW,2013-02-21 05:32:00,
2013-02-20 23:37:00,62.2,61.0,28.95,East,90,6.9,12.3,96,0.00,,,0.00,WUHU216HW,2013-02-21 05:37:00,
2013-02-20 23:42:00,62.4,61.2,28.96,ENE,68,6.7,13.6,96,0.00,,,0.00,WUHU216HW,2013-02-21 05:42:00,
2013-02-20 23:47:00,62.4,61.2,28.95,ENE,68,6.9,13.6,96,0.00,,,0.00,WUHU216HW,2013-02-21 05:47:00,
2013-02-20 23:52:00,62.4,61.2,28.95,East,90,5.3,10.7,96,0.00,,,0.00,WUHU216HW,2013-02-21 05:52:00,
2013-02-20 23:57:00,62.4,61.2,28.94,East,90,7.3,10.7,96,0.00,,,0.00,WUHU216HW,2013-02-21 05:57:00,